Peshtigo, WI

10:14 AM CDT on August 30, 2014 (GMT -0500)
Menominee-Marinette Twin County | Change Station
CLOSE
Current Station
Airport
Location: Menominee,
Elevation: 627 ft
Nearby Weather Stations

Elev 627 ft 45.13 °N, 87.64 °W | Updated 19 minutes ago

Overcast
Overcast
72 °F
Feels Like 72 °F
N
8
Wind Variable Wind from SW

Today
High -- | Low -- °F
--% Chance of Precip.
Yesterday
High -- | Low -- °F
Precip. -- in
6:10 AM 7:31 PM
Waxing Crescent, 22% visible
Pressure 29.72 in
Visibility 9.0 miles
Clouds Mostly Cloudy 800 ft
Overcast 1300 ft
Dew Point 66 °F
Humidity 83%
Rainfall 0.89 in
Snow Depth Not available.
UV 1 out of 12
Pollen .20 out of 12
Air Quality Not available.
Flu Activity Not available.
METAR KMNM 301455Z AUTO 22007KT 9SM BKN008 OVC013 22/19 A2972 RMK AO1 57007

More Conditions Fewer Conditions

Pressure 29.72 in
Visibility 9.0 miles
Clouds Mostly Cloudy 800 ft
Overcast 1300 ft
Dew Point 66 °F
Humidity 83%
Rainfall 0.89 in
Snow Depth Not available.
UV 1 out of 12
Pollen .20 out of 12
Air Quality Not available.
Flu Activity Not available.
METAR KMNM 301455Z AUTO 22007KT 9SM BKN008 OVC013 22/19 A2972 RMK AO1 57007

More Conditions Fewer Conditions

10-Day Weather Forecast

Almanac

Astronomy

Aug. 30, 2014 Rise Set
Actual Time 6:10 AM CDT 7:31 PM CDT
Civil Twilight 5:40 AM CDT 8:02 PM CDT
Nautical Twilight 5:03 AM CDT 8:38 PM CDT
Astronomical Twilight 4:24 AM CDT 9:17 PM CDT
Moon 11:12 AM CDT 9:50 PM CDT
Length of Visible Light 14h 22m
Length of Day
13h 21m
Tomorrow will be 3m 1s shorter.
Waxing Crescent, 22% of the Moon is Illuminated
Today
Waxing Crescent
Sep 2
First Quarter
Sep 8
Full
Sep 15
Last Quarter
Sep 24
New

Today's Extremes

State Highs State Lows

Community

WunderPhotos

Upload Photos

1,748,543 photos uploaded!

WunderBlogs® & News

Nearby

Snow Depth

Station Depth Elevation
No new snow has been reported.

Earthquake Activity

City Distance Mag. Time & Date
No recent earthquake activity has been reported nearby.
Minimum magnitude displayed is 2.5.

Coastal Water Temperatures

Place Temperature
Menominee, MI 71.1 °F

Nearby Weather Stations